createdAt,value
2023-05-10T00:00:41.099Z,73.60
2023-05-10T00:03:26.732Z,73.28
2023-05-10T00:06:12.566Z,72.68
2023-05-10T00:08:58.226Z,72.30
2023-05-10T00:11:43.500Z,72.45
2023-05-10T00:14:29.610Z,72.00
2023-05-10T00:17:15.216Z,71.64
2023-05-10T00:20:00.827Z,72.03
2023-05-10T00:22:46.388Z,71.81
2023-05-10T00:25:32.090Z,71.46
2023-05-10T00:28:17.331Z,71.28
2023-05-10T00:31:03.472Z,72.22
2023-05-10T00:33:49.025Z,72.73
2023-05-10T00:36:34.685Z,73.00
2023-05-10T00:39:20.571Z,73.10
2023-05-10T00:42:05.946Z,73.17
2023-05-10T00:44:52.172Z,73.07
2023-05-10T00:47:38.818Z,72.16
2023-05-10T00:50:24.486Z,72.55
2023-05-10T00:53:10.755Z,72.02
2023-05-10T00:55:57.291Z,73.02
2023-05-10T00:58:43.539Z,73.05
2023-05-10T01:05:00.551Z,72.50
2023-05-10T01:07:46.333Z,72.07
2023-05-10T01:10:32.353Z,72.66
2023-05-10T01:13:31.229Z,73.06
2023-05-10T01:16:17.552Z,73.08
2023-05-10T01:19:13.096Z,73.07
2023-05-10T01:22:31.656Z,72.25
2023-05-10T01:25:20.592Z,72.82
2023-05-10T01:28:06.224Z,73.29
2023-05-10T01:35:53.608Z,72.56
2023-05-10T01:42:48.338Z,73.33
2023-05-10T01:45:51.224Z,73.16
2023-05-10T01:48:48.069Z,72.06
2023-05-10T01:51:42.547Z,71.80
2023-05-10T01:54:29.938Z,72.03
2023-05-10T01:57:19.263Z,71.95
2023-05-10T02:00:08.705Z,72.61
2023-05-10T02:03:04.711Z,73.49
2023-05-10T02:05:52.575Z,73.00
2023-05-10T02:08:54.795Z,73.27
2023-05-10T02:15:22.109Z,73.19
2023-05-10T02:21:31.702Z,73.45
2023-05-10T02:24:36.467Z,72.91
2023-05-10T02:27:24.624Z,72.87
2023-05-10T02:30:11.862Z,73.22
2023-05-10T02:32:59.305Z,72.65
2023-05-10T02:35:47.231Z,72.81
2023-05-10T02:38:34.544Z,72.79
2023-05-10T02:41:23.079Z,72.62
2023-05-10T02:44:10.069Z,72.76
2023-05-10T02:46:56.463Z,72.53
2023-05-10T02:49:42.121Z,72.87
2023-05-10T02:52:31.472Z,72.62
2023-05-10T02:55:21.855Z,72.48
2023-05-10T02:58:07.418Z,72.30
2023-05-10T03:00:53.005Z,72.00
2023-05-10T03:03:38.499Z,72.52
2023-05-10T03:06:24.108Z,72.90
2023-05-10T03:09:11.633Z,72.22
2023-05-10T03:12:03.250Z,72.17
2023-05-10T03:15:05.481Z,72.00
2023-05-10T03:18:04.856Z,71.64
2023-05-10T03:20:59.881Z,72.43
2023-05-10T03:24:03.976Z,72.77
2023-05-10T03:26:54.328Z,73.03
2023-05-10T03:29:40.629Z,72.85
2023-05-10T03:32:27.609Z,73.02
2023-05-10T03:35:16.415Z,72.41
2023-05-10T03:38:03.051Z,72.74
2023-05-10T03:40:48.895Z,72.66
2023-05-10T03:43:34.275Z,74.09
2023-05-10T03:46:22.023Z,74.31
2023-05-10T03:49:07.639Z,73.34
2023-05-10T03:51:53.407Z,72.99
2023-05-10T03:54:38.715Z,72.27
2023-05-10T03:57:24.256Z,71.94
2023-05-10T04:00:11.066Z,71.74
2023-05-10T04:03:03.030Z,72.68
2023-05-10T04:05:48.685Z,72.41
2023-05-10T04:08:34.421Z,72.65
2023-05-10T04:11:22.349Z,72.87
2023-05-10T04:14:08.092Z,73.38
2023-05-10T04:16:53.619Z,72.65
2023-05-10T04:19:39.028Z,73.08
2023-05-10T04:22:24.908Z,72.53
2023-05-10T04:25:10.259Z,72.48
2023-05-10T04:27:55.336Z,71.71
2023-05-10T04:30:40.879Z,71.30
2023-05-10T04:33:26.630Z,71.37
2023-05-10T04:36:12.078Z,71.09
2023-05-10T04:38:58.788Z,70.05
2023-05-10T04:41:45.049Z,69.79
2023-05-10T04:44:31.110Z,70.13
2023-05-10T04:47:16.772Z,69.73
2023-05-10T04:50:02.265Z,69.66
2023-05-10T04:52:47.486Z,69.46
2023-05-10T04:55:33.149Z,69.41
2023-05-10T04:58:18.747Z,69.07
2023-05-10T05:01:10.963Z,69.18
2023-05-10T05:03:57.001Z,68.73
2023-05-10T05:06:45.425Z,67.78
2023-05-10T05:09:34.628Z,67.41
2023-05-10T05:12:23.133Z,67.40
2023-05-10T05:15:10.151Z,66.44
2023-05-10T05:17:55.785Z,66.71
2023-05-10T05:20:41.672Z,65.97
2023-05-10T05:23:27.345Z,65.46
2023-05-10T05:26:12.879Z,65.72
2023-05-10T05:28:58.380Z,65.29
2023-05-10T05:31:43.697Z,65.80
2023-05-10T05:34:31.168Z,65.52
2023-05-10T05:37:19.351Z,65.79
2023-05-10T05:40:05.795Z,65.52
2023-05-10T05:42:51.327Z,64.22
2023-05-10T05:45:36.690Z,64.81
2023-05-10T05:48:22.397Z,65.06
2023-05-10T05:51:08.232Z,64.27
2023-05-10T05:53:53.942Z,65.54
2023-05-10T05:56:39.332Z,65.70
2023-05-10T05:59:27.912Z,64.91
2023-05-10T06:02:14.822Z,65.08
2023-05-10T06:05:01.664Z,65.30
2023-05-10T06:07:50.668Z,64.46
2023-05-10T06:10:37.173Z,63.73
2023-05-10T06:13:22.868Z,63.58
2023-05-10T06:16:08.713Z,63.27
2023-05-10T06:18:54.484Z,61.73
2023-05-10T06:21:40.474Z,62.12
2023-05-10T06:24:27.528Z,63.26
2023-05-10T06:27:12.965Z,63.37
2023-05-10T06:30:11.611Z,63.50
2023-05-10T06:32:59.792Z,63.80
2023-05-10T06:35:48.343Z,63.41
2023-05-10T06:38:34.841Z,62.59
2023-05-10T06:41:24.743Z,62.37
2023-05-10T06:44:15.068Z,62.35
2023-05-10T06:47:02.286Z,61.33
2023-05-10T06:49:56.517Z,60.08
2023-05-10T06:52:46.025Z,59.01
2023-05-10T06:55:31.551Z,60.09
2023-05-10T06:58:19.707Z,59.59
2023-05-10T07:01:05.919Z,58.37
2023-05-10T07:03:51.747Z,60.04
2023-05-10T07:06:37.367Z,59.74
2023-05-10T07:09:24.025Z,60.40
2023-05-10T07:12:12.150Z,58.63
2023-05-10T07:14:59.218Z,59.56
2023-05-10T07:17:46.306Z,58.95
2023-05-10T07:20:31.983Z,59.07
2023-05-10T07:23:21.428Z,58.25
2023-05-10T07:26:17.029Z,56.68
2023-05-10T07:29:03.690Z,54.88
2023-05-10T07:31:57.941Z,54.10
2023-05-10T07:34:44.252Z,52.99
2023-05-10T07:37:35.280Z,53.05
2023-05-10T07:40:23.282Z,53.23
2023-05-10T07:43:10.145Z,53.03
2023-05-10T07:45:57.899Z,51.29
2023-05-10T07:48:43.295Z,50.99
2023-05-10T07:51:29.044Z,52.32
2023-05-10T07:54:16.004Z,48.83
2023-05-10T07:57:01.620Z,51.52
2023-05-10T07:59:47.314Z,51.95
2023-05-10T08:02:34.406Z,50.34
2023-05-10T08:05:20.282Z,48.88
2023-05-10T08:08:05.608Z,49.51
2023-05-10T08:10:51.291Z,49.73
2023-05-10T08:13:36.669Z,50.15
2023-05-10T08:16:22.313Z,51.22
2023-05-10T08:19:07.868Z,51.69
2023-05-10T08:21:55.827Z,50.60
2023-05-10T08:24:42.401Z,51.75
2023-05-10T08:27:27.600Z,52.39
2023-05-10T08:30:13.489Z,50.55
2023-05-10T08:33:00.836Z,50.38
2023-05-10T08:35:46.116Z,50.36
2023-05-10T08:38:31.768Z,50.12
2023-05-10T08:41:21.302Z,49.66
2023-05-10T08:44:12.391Z,50.03
2023-05-10T08:47:03.828Z,50.39
2023-05-10T08:49:51.606Z,50.28
2023-05-10T08:52:41.439Z,50.28
2023-05-10T08:55:33.904Z,50.13
2023-05-10T08:58:20.068Z,50.28
2023-05-10T09:01:06.163Z,48.93
2023-05-10T09:03:51.651Z,48.80
2023-05-10T09:06:37.851Z,47.00
2023-05-10T09:09:25.811Z,48.86
2023-05-10T09:12:12.685Z,49.27
2023-05-10T09:15:00.503Z,49.07
2023-05-10T09:17:47.759Z,48.08
2023-05-10T09:20:35.000Z,49.07
2023-05-10T09:26:49.364Z,47.47
2023-05-10T09:33:22.706Z,45.88
2023-05-10T09:36:09.019Z,46.11
2023-05-10T09:38:55.321Z,46.56
2023-05-10T09:41:55.383Z,47.16
2023-05-10T09:44:43.957Z,47.35
2023-05-10T09:47:29.547Z,48.58
2023-05-10T09:50:15.453Z,48.28
2023-05-10T09:53:03.829Z,48.44
2023-05-10T09:55:52.492Z,46.67
2023-05-10T09:58:42.524Z,47.95
2023-05-10T10:01:32.466Z,48.10
2023-05-10T10:04:27.856Z,47.92
2023-05-10T10:07:13.916Z,47.62
2023-05-10T10:10:02.971Z,46.31
2023-05-10T10:12:49.073Z,47.21
2023-05-10T10:18:30.553Z,48.48
2023-05-10T10:24:25.696Z,47.39
2023-05-10T10:27:20.836Z,46.49
2023-05-10T10:30:44.403Z,46.38
2023-05-10T10:34:07.691Z,46.36
2023-05-10T10:36:57.025Z,46.53
2023-05-10T10:39:42.547Z,46.23
2023-05-10T10:42:50.169Z,46.75
2023-05-10T10:45:42.495Z,46.41
2023-05-10T10:48:29.081Z,46.88
2023-05-10T10:51:15.457Z,45.70
2023-05-10T10:54:10.629Z,46.44
2023-05-10T11:01:16.500Z,44.73
2023-05-10T11:04:05.956Z,45.89
2023-05-10T11:07:11.456Z,46.05
2023-05-10T11:10:05.308Z,46.94
2023-05-10T11:13:01.313Z,46.36
2023-05-10T11:15:50.280Z,45.75
2023-05-10T11:18:37.717Z,45.29
2023-05-10T11:21:23.583Z,44.95
2023-05-10T11:24:14.523Z,45.04
2023-05-10T11:27:04.456Z,45.34
2023-05-10T11:30:08.448Z,43.68
2023-05-10T11:32:56.054Z,44.00
2023-05-10T11:35:43.616Z,43.26
2023-05-10T11:38:36.128Z,43.39
2023-05-10T11:41:24.810Z,42.81
2023-05-10T11:44:11.093Z,42.42
2023-05-10T11:47:00.161Z,43.20
2023-05-10T11:49:46.031Z,44.32
2023-05-10T11:52:38.031Z,43.24
2023-05-10T11:55:26.861Z,41.40
2023-05-10T11:58:12.264Z,41.94
2023-05-10T12:00:59.095Z,41.96
2023-05-10T12:03:44.915Z,40.39
2023-05-10T12:06:40.910Z,41.89
2023-05-10T12:09:39.644Z,41.15
2023-05-10T12:12:26.656Z,38.79
2023-05-10T12:15:23.815Z,38.50
2023-05-10T12:18:10.996Z,36.97
2023-05-10T12:21:04.665Z,35.15
2023-05-10T12:23:56.915Z,34.73
2023-05-10T12:26:42.564Z,35.21
2023-05-10T12:29:30.933Z,36.28
2023-05-10T12:32:16.390Z,36.21
2023-05-10T12:35:04.514Z,34.77
2023-05-10T12:37:52.914Z,35.30
2023-05-10T12:40:38.281Z,34.02
2023-05-10T12:43:23.808Z,34.28
2023-05-10T12:46:19.177Z,33.21
2023-05-10T12:49:09.465Z,32.17
2023-05-10T12:51:56.221Z,32.09
2023-05-10T12:54:57.010Z,31.25
2023-05-10T12:57:42.274Z,31.62
2023-05-10T13:00:27.843Z,31.09
2023-05-10T13:03:16.218Z,30.23
2023-05-10T13:06:01.947Z,29.72
2023-05-10T13:08:47.342Z,29.78
2023-05-10T13:11:37.386Z,29.13
2023-05-10T13:14:25.685Z,29.54
2023-05-10T13:17:19.178Z,29.03
2023-05-10T13:20:16.588Z,29.84
2023-05-10T13:23:03.432Z,29.07
2023-05-10T13:25:49.441Z,28.29
2023-05-10T13:28:35.334Z,28.37
2023-05-10T13:31:21.326Z,29.48
2023-05-10T13:34:07.183Z,28.70
2023-05-10T13:36:55.662Z,27.87
2023-05-10T13:39:41.033Z,26.96
2023-05-10T13:42:27.603Z,28.26
2023-05-10T13:45:13.538Z,26.80
2023-05-10T13:47:58.910Z,26.46
2023-05-10T13:50:44.167Z,25.76
2023-05-10T13:53:30.016Z,25.80
2023-05-10T13:56:16.476Z,25.47
2023-05-10T13:59:02.385Z,25.86
2023-05-10T14:01:47.729Z,25.17
2023-05-10T14:04:34.820Z,23.96
2023-05-10T14:07:20.188Z,25.26
2023-05-10T14:10:06.665Z,26.43
2023-05-10T14:12:52.584Z,27.50
2023-05-10T14:15:38.004Z,26.05
2023-05-10T14:18:23.651Z,26.09
2023-05-10T14:21:10.566Z,24.51
2023-05-10T14:23:57.611Z,25.29
2023-05-10T14:26:43.068Z,25.45
2023-05-10T14:29:28.432Z,25.42
2023-05-10T14:32:14.123Z,26.59
2023-05-10T14:35:00.178Z,26.67
2023-05-10T14:37:45.991Z,25.85
2023-05-10T14:40:31.693Z,26.09
2023-05-10T14:43:17.218Z,26.81
2023-05-10T14:46:02.583Z,26.37
2023-05-10T14:48:48.613Z,25.36
2023-05-10T14:51:34.440Z,25.36
2023-05-10T14:54:19.801Z,26.41
2023-05-10T14:57:05.845Z,26.53
2023-05-10T14:59:51.032Z,25.42
2023-05-10T15:02:37.415Z,25.70
2023-05-10T15:05:24.022Z,26.59
2023-05-10T15:08:09.947Z,26.56
2023-05-10T15:10:56.437Z,26.08
2023-05-10T15:13:41.910Z,26.21
2023-05-10T15:16:28.682Z,25.39
2023-05-10T15:19:19.176Z,24.94
2023-05-10T15:22:05.978Z,25.23
2023-05-10T15:24:53.749Z,26.31
2023-05-10T15:27:40.323Z,28.05
2023-05-10T15:30:26.854Z,29.37
2023-05-10T15:33:12.701Z,29.86
2023-05-10T15:35:58.410Z,31.33
2023-05-10T15:38:44.372Z,31.71
2023-05-10T15:41:30.572Z,32.25
2023-05-10T15:44:16.227Z,33.84
2023-05-10T15:47:03.211Z,35.95
2023-05-10T15:49:49.000Z,36.59
2023-05-10T15:52:36.617Z,36.47
2023-05-10T15:55:21.932Z,35.97
2023-05-10T16:01:26.214Z,38.44
2023-05-10T16:04:13.377Z,38.66
2023-05-10T16:06:59.121Z,40.03
2023-05-10T16:09:44.530Z,41.22
2023-05-10T16:12:30.835Z,41.46
2023-05-10T16:15:16.680Z,41.59
2023-05-10T16:18:03.180Z,41.53
2023-05-10T16:20:48.996Z,42.20
2023-05-10T16:23:34.635Z,42.27
2023-05-10T16:34:17.752Z,46.13
2023-05-10T16:41:52.638Z,46.23
2023-05-10T16:45:23.517Z,46.01
2023-05-10T16:56:38.093Z,48.39
2023-05-10T16:59:24.393Z,49.26
2023-05-10T17:02:09.737Z,49.87
2023-05-10T17:04:55.642Z,50.14
2023-05-10T17:07:41.355Z,50.76
2023-05-10T17:10:27.141Z,50.97
2023-05-10T17:13:12.702Z,51.39
2023-05-10T17:15:58.327Z,52.46
2023-05-10T17:18:45.308Z,52.78
2023-05-10T17:21:31.519Z,53.12
2023-05-10T17:24:16.948Z,54.01
2023-05-10T17:27:03.100Z,54.45
2023-05-10T17:29:48.670Z,55.06
2023-05-10T17:32:34.327Z,54.99
2023-05-10T17:35:20.971Z,55.26
2023-05-10T17:38:07.292Z,55.70
2023-05-10T17:40:52.841Z,56.16
2023-05-10T17:43:39.982Z,56.29
2023-05-10T17:46:25.814Z,55.52
2023-05-10T17:49:11.016Z,56.19
2023-05-10T17:51:56.693Z,56.12
2023-05-10T17:54:42.398Z,56.45
2023-05-10T17:57:27.521Z,56.43
2023-05-10T18:00:13.852Z,56.35
2023-05-10T18:03:00.800Z,56.07
2023-05-10T18:05:47.377Z,56.44
2023-05-10T18:08:34.357Z,56.53
2023-05-10T18:11:19.711Z,57.17
2023-05-10T18:14:05.206Z,57.22
2023-05-10T18:16:51.208Z,57.90
2023-05-10T18:19:36.720Z,58.17
2023-05-10T18:22:22.329Z,57.92
2023-05-10T18:25:08.076Z,57.95
2023-05-10T18:27:53.907Z,57.66
2023-05-10T18:30:40.405Z,57.53
2023-05-10T18:33:25.886Z,57.59
2023-05-10T18:36:11.857Z,57.95
2023-05-10T18:38:57.688Z,57.77
2023-05-10T18:41:45.091Z,57.57
2023-05-10T18:44:30.761Z,57.35
2023-05-10T18:47:15.902Z,57.10
2023-05-10T18:50:04.741Z,57.19
2023-05-10T18:52:50.174Z,56.93
2023-05-10T18:55:35.561Z,57.11
2023-05-10T18:58:21.596Z,57.40
2023-05-10T19:01:07.714Z,57.93
2023-05-10T19:03:53.218Z,58.69
2023-05-10T19:06:39.530Z,58.66
2023-05-10T19:09:26.150Z,58.67
2023-05-10T19:12:11.133Z,58.40
2023-05-10T19:14:56.754Z,58.97
2023-05-10T19:17:45.644Z,59.15
2023-05-10T19:20:31.383Z,59.30
2023-05-10T19:23:17.188Z,59.48
2023-05-10T19:26:02.703Z,59.07
2023-05-10T19:28:51.115Z,59.31
2023-05-10T19:31:36.803Z,59.46
2023-05-10T19:34:22.363Z,59.30
2023-05-10T19:37:07.984Z,59.40
2023-05-10T19:39:53.728Z,59.37
2023-05-10T19:42:38.987Z,59.20
2023-05-10T19:45:24.637Z,59.78
2023-05-10T19:48:10.165Z,59.65
2023-05-10T19:51:01.597Z,60.20
2023-05-10T19:53:46.701Z,60.34
2023-05-10T19:56:32.381Z,60.29
2023-05-10T19:59:18.072Z,60.97
2023-05-10T20:02:06.796Z,61.02
2023-05-10T20:04:51.943Z,60.86
2023-05-10T20:07:37.330Z,60.53
2023-05-10T20:10:24.650Z,60.46
2023-05-10T20:13:11.832Z,60.53
2023-05-10T20:16:00.953Z,61.13
2023-05-10T20:18:46.455Z,61.07
2023-05-10T20:21:32.977Z,60.69
2023-05-10T20:24:18.777Z,60.96
2023-05-10T20:27:04.381Z,60.26
2023-05-10T20:29:49.607Z,60.08
2023-05-10T20:32:35.120Z,60.27
2023-05-10T20:35:20.579Z,60.98
2023-05-10T20:38:05.968Z,61.00
2023-05-10T20:40:51.674Z,61.08
2023-05-10T20:43:37.224Z,61.24
2023-05-10T20:46:23.107Z,61.42
2023-05-10T20:49:10.292Z,61.69
2023-05-10T20:51:56.297Z,62.31
2023-05-10T20:54:42.519Z,62.77
2023-05-10T20:57:28.202Z,63.11
2023-05-10T21:00:14.060Z,63.64
2023-05-10T21:02:59.459Z,63.79
2023-05-10T21:05:44.726Z,63.47
2023-05-10T21:08:30.152Z,63.71
2023-05-10T21:11:15.461Z,63.77
2023-05-10T21:14:01.868Z,63.94
2023-05-10T21:16:47.107Z,64.15
2023-05-10T21:19:32.331Z,64.44
2023-05-10T21:22:18.010Z,64.43
2023-05-10T21:25:03.485Z,65.01
2023-05-10T21:27:48.870Z,65.28
2023-05-10T21:30:34.496Z,65.24
2023-05-10T21:33:20.093Z,65.76
2023-05-10T21:36:05.747Z,64.46
2023-05-10T21:38:51.452Z,64.51
2023-05-10T21:41:36.960Z,65.06
2023-05-10T21:44:22.493Z,64.92
2023-05-10T21:47:08.156Z,65.15
2023-05-10T21:49:53.593Z,65.31
2023-05-10T21:52:38.871Z,65.27
2023-05-10T21:55:24.423Z,65.59
2023-05-10T21:58:10.510Z,66.09
2023-05-10T22:00:56.497Z,66.25
2023-05-10T22:03:42.035Z,66.56
2023-05-10T22:06:27.497Z,66.74
2023-05-10T22:09:13.137Z,67.16
2023-05-10T22:11:58.382Z,66.91
2023-05-10T22:14:45.466Z,67.06
2023-05-10T22:17:31.063Z,67.04
2023-05-10T22:20:16.507Z,66.58
2023-05-10T22:23:02.468Z,66.51
2023-05-10T22:25:48.237Z,67.18
2023-05-10T22:28:35.819Z,66.99
2023-05-10T22:31:21.507Z,67.25
2023-05-10T22:34:07.044Z,67.58
2023-05-10T22:36:53.291Z,67.41
2023-05-10T22:39:38.660Z,67.04
2023-05-10T22:42:23.715Z,67.23
2023-05-10T22:45:10.945Z,66.83
2023-05-10T22:47:56.260Z,66.89
2023-05-10T22:50:42.184Z,67.50
2023-05-10T22:53:27.492Z,68.04
2023-05-10T22:56:13.290Z,67.92
2023-05-10T22:59:01.204Z,67.97
2023-05-10T23:01:48.730Z,67.73
2023-05-10T23:04:34.669Z,67.89
2023-05-10T23:07:20.013Z,67.68
2023-05-10T23:10:05.955Z,67.22
2023-05-10T23:12:51.513Z,67.22
2023-05-10T23:15:36.796Z,66.35
2023-05-10T23:18:22.245Z,65.95
2023-05-10T23:21:07.472Z,66.52
2023-05-10T23:23:54.193Z,66.96
2023-05-10T23:26:39.942Z,66.99
2023-05-10T23:29:26.209Z,67.51
2023-05-10T23:32:12.491Z,67.91
2023-05-10T23:34:57.969Z,67.84
2023-05-10T23:37:43.306Z,67.65
2023-05-10T23:40:28.541Z,67.79
2023-05-10T23:43:15.631Z,67.56
2023-05-10T23:46:01.698Z,66.72
2023-05-10T23:48:47.237Z,66.49
2023-05-10T23:51:33.353Z,66.70
2023-05-10T23:54:18.691Z,67.08
2023-05-10T23:57:04.282Z,67.07
2023-05-10T23:59:50.021Z,67.07
